Airport View

Enter AWOS ICAO identifier for current METAR.

ex. KFNL

PADE 212253Z AUTO VRB03KT 10SM OVC033 08/01 A2953 RMK AO2 SLP999 T00780011 TSNO

21 Sep 2019 23:25

Frequency: 135.5

Phone: 907-363-2102

Other Area AWOS: PABL - PAOT - PFNO - PASK

TAF PAOT 211730Z 2118/2218 09005KT P6SM SCT040 OVC050 FM212100 24005KT P6SM SCT050 BKN070 FM220600 12005KT P6SM BKN080